AirNav   Duncan Aviation - Near you to keep you flying
 
 1044 users online  

4CO4 St Anthony North Heliport
Westminster, Colorado, USA

GOING TO WESTMINSTER?


FAA INFORMATION EFFECTIVE 08 SEPTEMBER 2022

Location

FAA Identifier: 4CO4
Lat/Long: 39-51-01.3900N 105-01-01.9900W
39-51.023167N 105-01.033167W
39.8503861,-105.0172194
(estimated)
Elevation: 5506 ft. / 1678 m (estimated)
Variation: 11E (1985)
From city: 1 mile NE of WESTMINSTER, CO
Time zone: UTC -6 (UTC -7 during Standard Time)
Zip code: 80260

Heliport Operations

Heliport use: Private use, MEDICAL USE.
Activation date: 09/1973
Control tower: no
ARTCC: DENVER CENTER
FSS: DENVER FLIGHT SERVICE STATION
Attendance: CONTINUOUS
Wind indicator: yes
Segmented circle: no

Heliport Communications

WX AWOS-3 at BJC (6 nm NW): PHONE 720-887-8067
WX AWOS-3 at EIK (10 nm N): 133.825 (303-604-4339)
WX AWOS-3 at BDU (15 nm NW): 118.825 (303-541-9540)
WX ASOS at DEN (16 nm E): PHONE 303-342-1920
WX ASOS at APA (19 nm SE): PHONE 720-873-2799

Nearby radio navigation aids

VOR radial/distance  VOR name  Freq  Var
BJCr113/6.8JEFFCO VOR/DME115.4011E
DENr270/16.6DENVER VOR/DME117.9008E
DVVr254/18.3MILE HIGH VORTAC114.7008E
FQFr287/20.6FALCON VORTAC116.3011E

Heliport Services

Airframe service: NONE
Powerplant service: NONE

Runway Information

Helipad H1

Dimensions: 94 x 54 ft. / 29 x 16 m
Surface: concrete
Latitude: 39-51.023167N
Longitude: 105-01.033167W
Elevation: 5506.0 ft.
Traffic pattern: leftleft

Heliport Ownership and Management from official FAA records

Ownership: Privately-owned
Owner: ST ANTHONY HOSPITAL
11600 W. 2ND PLACE
LAKEWOOD, CO 80028
Phone 720-321-3911
Manager: KATHLEEN MAYER
11600 W. 2ND PLACE
LAKEWOOD, CO 80028
Phone 720-321-3911

Additional Remarks

A52-H1 15 FT LGTD/MKD BLDG 50 FT SW; 200 FT WATERTANK 390 FT EAST OF HELIPAD.
FOR CD CTC DENVER APCH AT 303-342-1916.

Instrument Procedures

There are no published instrument procedures at 4CO4.

Some nearby airports with instrument procedures:

KBJC - Rocky Mountain Metro Airport (6 nm NW)
KEIK - Erie Municipal Airport (10 nm N)
KBKF - Buckley Space Force Base (15 nm SE)
KDEN - Denver International Airport (16 nm E)
KAPA - Centennial Airport (19 nm SE)
 
Loc | Ops | Rwys | IFR | FBO | Links
Com | Nav | Svcs | Stats | Notes

AirBoss

 
Area around 4CO4 (St Anthony North Heliport)
 
Road maps at: MapQuest Bing Google
 
Aerial photo
No photo
 
Sectional chart

 
Airport distance calculator
Flying to St Anthony North Heliport? Find the distance to fly.

From to 4CO4

Sunrise and sunset
Times for 24-Sep-2022
 Local
(UTC-6)
 Zulu
(UTC)
Morning civil twilight06:2412:24
Sunrise06:5112:51
Sunset18:5400:54
Evening civil twilight19:2101:21

Current date and time
Zulu (UTC)  24-Sep-2022 22:48:04
Local (UTC-6)  24-Sep-2022 16:48:04
 
METAR
KBJC 
6nm NW 
242145Z VRB04KT 10SM SKC 27/M03 A3020
KEIK 
10nm N 
242235Z AUTO 11004KT 10SM CLR 27/M05 A3016 RMK AO2 T02721050 PWINO
KBKF 
15nm SE 
242158Z 01008KT 10SM FEW100 28/M04 A3019 RMK AO2A SLP157 T02761044
K1V5 
15nm NW 
AWOS 118.825 303-541-9540
No observation available
KBDU 
15nm NW 
242235Z AUTO 09003KT 10SM CLR 27/00 A3017 RMK AO2
KDEN 
17nm E 
242153Z VRB05KT 10SM FEW100 27/M05 A3018 RMK AO2 SLP148 T02671050
KAPA 
19nm SE 
242153Z 03008KT 10SM CLR 26/M04 A3020 RMK AO2 SLP173 T02611044
TAF
KBJC 
6nm NW 
241740Z 2418/2518 VRB03KT P6SM SKC FM241900 07007KT P6SM SKC FM250500 35005KT P6SM SKC
KBKF 
15nm SE 
241700Z 2417/2523 VRB06KT 9999 SKC 510023 QNH3021INS TX24/2422Z TN07/2512Z
KDEN 
17nm E 
242032Z 2421/2524 01009KT P6SM FEW100 FEW220 FM242230 04010KT P6SM FEW100 FEW220 FM250000 09006KT P6SM FEW220 FM250600 01006KT P6SM FEW220 FM251000 20006KT P6SM SKC FM251700 02007KT P6SM SKC FM252000 07007KT P6SM FEW120
KAPA 
19nm SE 
241740Z 2418/2518 VRB05KT P6SM FEW100 FEW220 FM242200 08006KT P6SM FEW220 FM250700 01006KT P6SM FEW220 FM251100 19006KT P6SM SKC FM251700 04006KT P6SM SKC
NOTAMs
Click for the latest NOTAMs
NOTAMs are issued by the DoD/FAA and will open in a separate window not controlled by AirNav.

 

 
 

Would you like to see your business listed on this page?

 If your business provides an interesting product or service to pilots, flight crews, aircraft, or users of the St Anthony North Heliport, you should consider listing it here.  To start the listing process, click on the button below
 
Add a business
 

Other Pages about St Anthony North Heliport

Update a link
 
Copyright © AirNav, LLC. All rights reserved. Privacy Policy  Contact